createdAt,value
2022-09-20T00:00:06.855Z,26.10
2022-09-20T00:00:36.966Z,26.12
2022-09-20T00:01:07.154Z,26.13
2022-09-20T00:01:37.200Z,26.10
2022-09-20T00:02:07.174Z,26.12
2022-09-20T00:02:37.285Z,26.12
2022-09-20T00:03:07.394Z,26.12
2022-09-20T00:03:37.504Z,26.12
2022-09-20T00:04:07.779Z,26.12
2022-09-20T00:04:37.756Z,26.12
2022-09-20T00:05:07.812Z,26.12
2022-09-20T00:05:37.803Z,26.13
2022-09-20T00:06:07.909Z,26.12
2022-09-20T00:06:38.025Z,26.13
2022-09-20T00:07:08.154Z,26.12
2022-09-20T00:07:38.244Z,26.12
2022-09-20T00:08:08.358Z,26.12
2022-09-20T00:08:38.477Z,26.13
2022-09-20T00:09:08.584Z,26.12
2022-09-20T00:09:38.717Z,26.12
2022-09-20T00:10:08.705Z,26.12
2022-09-20T00:10:38.817Z,26.12
2022-09-20T00:11:08.941Z,26.13
2022-09-20T00:11:39.049Z,26.12
2022-09-20T00:12:09.157Z,26.15
2022-09-20T00:12:39.267Z,26.12
2022-09-20T00:13:09.391Z,26.10
2022-09-20T00:13:39.497Z,26.13
2022-09-20T00:14:09.605Z,26.12
2022-09-20T00:14:39.752Z,26.12
2022-09-20T00:15:09.741Z,26.12
2022-09-20T00:15:39.853Z,26.12
2022-09-20T00:16:10.054Z,26.12
2022-09-20T00:16:40.318Z,26.13
2022-09-20T00:17:10.108Z,26.13
2022-09-20T00:17:40.220Z,26.12
2022-09-20T00:18:10.332Z,26.13
2022-09-20T00:18:40.444Z,26.12
2022-09-20T00:19:10.569Z,26.12
2022-09-20T00:19:40.694Z,26.12
2022-09-20T00:20:10.676Z,26.10
2022-09-20T00:20:40.791Z,26.09
2022-09-20T00:21:10.900Z,26.12
2022-09-20T00:21:41.016Z,26.10
2022-09-20T00:22:11.125Z,26.09
2022-09-20T00:22:41.260Z,26.10
2022-09-20T00:23:11.350Z,26.12
2022-09-20T00:23:41.470Z,26.10
2022-09-20T00:24:11.580Z,26.09
2022-09-20T00:24:44.576Z,26.10
2022-09-20T00:25:11.710Z,26.07
2022-09-20T00:25:41.828Z,26.09
2022-09-20T00:26:11.941Z,26.07
2022-09-20T00:26:42.053Z,26.10
2022-09-20T00:27:12.167Z,26.07
2022-09-20T00:27:42.279Z,26.09
2022-09-20T00:28:12.387Z,26.10
2022-09-20T00:28:42.502Z,26.09
2022-09-20T00:29:12.613Z,26.10
2022-09-20T00:29:42.732Z,26.12
2022-09-20T00:30:12.723Z,26.07
2022-09-20T00:30:42.833Z,26.09
2022-09-20T00:31:12.943Z,26.09
2022-09-20T00:31:43.276Z,26.05
2022-09-20T00:32:13.156Z,26.09
2022-09-20T00:32:43.157Z,26.07
2022-09-20T00:33:13.270Z,26.09
2022-09-20T00:33:43.381Z,26.06
2022-09-20T00:34:13.457Z,26.09
2022-09-20T00:34:43.527Z,26.07
2022-09-20T00:35:13.607Z,26.07
2022-09-20T00:35:43.687Z,26.07
2022-09-20T00:36:13.756Z,26.07
2022-09-20T00:36:43.834Z,26.10
2022-09-20T00:37:13.903Z,26.07
2022-09-20T00:37:44.001Z,26.09
2022-09-20T00:38:14.051Z,26.05
2022-09-20T00:38:44.130Z,26.09
2022-09-20T00:39:14.209Z,26.07
2022-09-20T00:39:44.282Z,26.09
2022-09-20T00:40:14.458Z,26.09
2022-09-20T00:40:44.470Z,26.07
2022-09-20T00:41:14.470Z,26.06
2022-09-20T00:41:44.544Z,26.07
2022-09-20T00:42:14.618Z,26.09
2022-09-20T00:42:44.695Z,26.07
2022-09-20T00:43:14.770Z,26.07
2022-09-20T00:43:44.847Z,26.06
2022-09-20T00:44:14.963Z,26.06
2022-09-20T00:44:45.084Z,26.09
2022-09-20T00:45:15.191Z,26.05
2022-09-20T00:45:45.359Z,26.05
2022-09-20T00:46:15.423Z,26.06
2022-09-20T00:46:45.400Z,26.07
2022-09-20T00:47:15.586Z,26.06
2022-09-20T00:47:45.559Z,26.07
2022-09-20T00:48:15.673Z,26.05
2022-09-20T00:48:45.789Z,26.06
2022-09-20T00:49:15.896Z,26.05
2022-09-20T00:49:46.021Z,26.06
2022-09-20T00:50:16.132Z,26.07
2022-09-20T00:50:46.244Z,26.09
2022-09-20T00:51:16.236Z,26.06
2022-09-20T00:51:46.348Z,26.06
2022-09-20T00:52:16.462Z,26.06
2022-09-20T00:52:46.606Z,26.07
2022-09-20T00:53:16.689Z,26.07
2022-09-20T00:53:46.807Z,26.06
2022-09-20T00:54:20.162Z,26.05
2022-09-20T00:54:47.037Z,26.05
2022-09-20T00:55:17.026Z,26.07
2022-09-20T00:55:47.140Z,26.07
2022-09-20T00:56:17.252Z,26.06
2022-09-20T00:56:47.363Z,26.06
2022-09-20T00:57:17.472Z,26.06
2022-09-20T00:57:47.584Z,26.06
2022-09-20T00:58:17.700Z,26.06
2022-09-20T00:58:47.808Z,26.05
2022-09-20T00:59:17.924Z,26.07
2022-09-20T00:59:48.066Z,26.06
2022-09-20T01:00:18.051Z,26.07
2022-09-20T01:00:48.202Z,26.06
2022-09-20T01:01:18.276Z,26.06
2022-09-20T01:01:48.240Z,26.06
2022-09-20T01:02:18.393Z,26.05
2022-09-20T01:02:48.509Z,26.07
2022-09-20T01:03:18.373Z,26.06
2022-09-20T01:03:48.485Z,26.07
2022-09-20T01:04:18.593Z,26.06
2022-09-20T01:04:48.709Z,26.06
2022-09-20T01:05:18.818Z,26.07
2022-09-20T01:05:48.932Z,26.06
2022-09-20T01:06:19.046Z,26.05
2022-09-20T01:06:49.157Z,26.03
2022-09-20T01:07:19.267Z,26.06
2022-09-20T01:07:49.382Z,26.05
2022-09-20T01:08:19.515Z,26.06
2022-09-20T01:08:49.603Z,26.05
2022-09-20T01:09:19.712Z,26.06
2022-09-20T01:09:49.834Z,26.05
2022-09-20T01:10:19.945Z,26.05
2022-09-20T01:10:50.054Z,26.05
2022-09-20T01:11:20.167Z,26.05
2022-09-20T01:11:50.278Z,26.06
2022-09-20T01:12:20.382Z,26.07
2022-09-20T01:12:50.496Z,26.06
2022-09-20T01:13:20.607Z,26.05
2022-09-20T01:13:50.721Z,26.05
2022-09-20T01:14:20.834Z,26.06
2022-09-20T01:14:50.950Z,26.07
2022-09-20T01:15:20.942Z,26.03
2022-09-20T01:15:51.053Z,26.05
2022-09-20T01:16:21.215Z,26.05
2022-09-20T01:16:51.286Z,26.05
2022-09-20T01:17:21.307Z,26.03
2022-09-20T01:17:51.417Z,26.06
2022-09-20T01:18:21.531Z,26.05
2022-09-20T01:18:51.645Z,26.06
2022-09-20T01:19:21.757Z,26.06
2022-09-20T01:19:51.874Z,26.06
2022-09-20T01:20:21.981Z,26.05
2022-09-20T01:20:52.092Z,26.06
2022-09-20T01:21:22.206Z,26.03
2022-09-20T01:21:52.318Z,26.03
2022-09-20T01:22:22.469Z,26.06
2022-09-20T01:22:52.423Z,26.03
2022-09-20T01:23:22.559Z,26.05
2022-09-20T01:23:52.643Z,26.05
2022-09-20T01:24:22.754Z,26.07
2022-09-20T01:24:52.867Z,26.06
2022-09-20T01:25:23.000Z,26.05
2022-09-20T01:25:52.981Z,26.05
2022-09-20T01:26:23.098Z,26.05
2022-09-20T01:26:53.210Z,26.03
2022-09-20T01:27:23.317Z,26.06
2022-09-20T01:27:53.429Z,26.06
2022-09-20T01:28:23.541Z,26.03
2022-09-20T01:28:53.649Z,26.06
2022-09-20T01:29:23.758Z,26.06
2022-09-20T01:29:53.876Z,26.05
2022-09-20T01:30:23.987Z,26.05
2022-09-20T01:30:54.105Z,26.05
2022-09-20T01:31:24.306Z,26.05
2022-09-20T01:31:54.382Z,26.06
2022-09-20T01:32:24.369Z,26.03
2022-09-20T01:32:54.477Z,26.05
2022-09-20T01:33:24.601Z,26.05
2022-09-20T01:33:54.681Z,26.05
2022-09-20T01:34:24.750Z,26.05
2022-09-20T01:34:54.827Z,26.05
2022-09-20T01:35:24.897Z,26.07
2022-09-20T01:35:54.973Z,26.03
2022-09-20T01:36:25.052Z,26.03
2022-09-20T01:36:55.113Z,26.06
2022-09-20T01:37:25.189Z,26.06
2022-09-20T01:37:55.261Z,26.05
2022-09-20T01:38:25.357Z,26.05
2022-09-20T01:38:55.405Z,26.03
2022-09-20T01:39:25.479Z,26.05
2022-09-20T01:39:55.748Z,26.05
2022-09-20T01:40:25.657Z,26.02
2022-09-20T01:40:55.612Z,26.06
2022-09-20T01:41:25.689Z,26.05
2022-09-20T01:41:55.761Z,26.03
2022-09-20T01:42:25.834Z,26.06
2022-09-20T01:42:55.905Z,26.05
2022-09-20T01:43:25.976Z,26.07
2022-09-20T01:43:56.162Z,26.05
2022-09-20T01:44:26.128Z,26.05
2022-09-20T01:44:56.241Z,26.03
2022-09-20T01:45:26.296Z,26.05
2022-09-20T01:45:56.372Z,26.05
2022-09-20T01:46:26.353Z,26.03
2022-09-20T01:46:56.450Z,26.05
2022-09-20T01:47:26.569Z,26.06
2022-09-20T01:47:56.681Z,26.05
2022-09-20T01:48:26.799Z,26.05
2022-09-20T01:48:56.903Z,26.05
2022-09-20T01:49:27.018Z,26.06
2022-09-20T01:49:57.146Z,26.06
2022-09-20T01:50:27.125Z,26.06
2022-09-20T01:50:57.235Z,26.06
2022-09-20T01:51:27.346Z,26.06
2022-09-20T01:51:57.455Z,26.09
2022-09-20T01:52:27.571Z,26.06
2022-09-20T01:52:57.679Z,26.07
2022-09-20T01:53:27.819Z,26.07
2022-09-20T01:53:57.919Z,26.09
2022-09-20T01:54:28.014Z,26.07
2022-09-20T01:54:58.147Z,26.07
2022-09-20T01:55:28.132Z,26.07
2022-09-20T01:55:58.235Z,26.07
2022-09-20T01:56:28.357Z,26.06
2022-09-20T01:56:58.465Z,26.09
2022-09-20T01:57:28.584Z,26.10
2022-09-20T01:57:58.692Z,26.10
2022-09-20T01:58:28.810Z,26.06
2022-09-20T01:59:19.908Z,26.06
2022-09-20T01:59:29.202Z,26.06
2022-09-20T01:59:59.001Z,26.09
2022-09-20T02:00:28.985Z,26.07
2022-09-20T02:00:59.171Z,26.07
2022-09-20T02:01:29.263Z,26.05
2022-09-20T02:01:59.243Z,26.07
2022-09-20T02:02:29.276Z,26.09
2022-09-20T02:02:59.242Z,26.10
2022-09-20T02:03:29.360Z,26.09
2022-09-20T02:03:59.466Z,26.07
2022-09-20T02:04:29.579Z,26.09
2022-09-20T02:04:59.692Z,26.10
2022-09-20T02:05:29.803Z,26.07
2022-09-20T02:05:59.916Z,26.09
2022-09-20T02:06:30.042Z,26.10
2022-09-20T02:07:00.142Z,26.07
2022-09-20T02:07:30.256Z,26.07
2022-09-20T02:08:00.370Z,26.10
2022-09-20T02:08:30.503Z,26.09
2022-09-20T02:09:00.595Z,26.07
2022-09-20T02:09:30.705Z,26.07
2022-09-20T02:10:00.822Z,26.06
2022-09-20T02:10:30.949Z,26.09
2022-09-20T02:11:01.048Z,26.05
2022-09-20T02:11:31.168Z,26.07
2022-09-20T02:12:01.273Z,26.09
2022-09-20T02:12:33.701Z,26.07
2022-09-20T02:13:01.494Z,26.06
2022-09-20T02:13:31.605Z,26.07
2022-09-20T02:14:01.721Z,26.06
2022-09-20T02:14:31.850Z,26.07
2022-09-20T02:15:01.833Z,26.09
2022-09-20T02:15:31.952Z,26.07
2022-09-20T02:16:02.065Z,26.06
2022-09-20T02:16:32.246Z,26.06
2022-09-20T02:17:02.319Z,26.07
2022-09-20T02:17:32.277Z,26.06
2022-09-20T02:18:02.387Z,26.06
2022-09-20T02:18:32.498Z,26.06
2022-09-20T02:19:02.613Z,26.06
2022-09-20T02:19:32.730Z,26.03
2022-09-20T02:20:02.861Z,26.03
2022-09-20T02:20:32.961Z,26.03
2022-09-20T02:21:03.073Z,26.07
2022-09-20T02:21:33.190Z,26.05
2022-09-20T02:22:03.298Z,26.06
2022-09-20T02:22:33.415Z,26.03
2022-09-20T02:23:03.597Z,26.03
2022-09-20T02:23:33.591Z,26.06
2022-09-20T02:24:03.678Z,26.05
2022-09-20T02:24:33.795Z,26.05
2022-09-20T02:25:03.914Z,26.05
2022-09-20T02:25:33.901Z,26.05
2022-09-20T02:26:04.017Z,26.03
2022-09-20T02:26:34.131Z,26.05
2022-09-20T02:27:04.249Z,26.03
2022-09-20T02:27:34.242Z,26.02
2022-09-20T02:28:04.353Z,26.03
2022-09-20T02:28:34.464Z,26.06
2022-09-20T02:29:04.575Z,26.03
2022-09-20T02:29:34.695Z,26.03
2022-09-20T02:30:04.805Z,26.05
2022-09-20T02:30:34.921Z,26.05
2022-09-20T02:31:05.030Z,26.03
2022-09-20T02:31:35.239Z,26.03
2022-09-20T02:32:05.318Z,26.06
2022-09-20T02:32:35.310Z,26.03
2022-09-20T02:33:05.423Z,26.02
2022-09-20T02:33:35.538Z,26.02
2022-09-20T02:34:05.650Z,26.02
2022-09-20T02:34:35.766Z,26.03
2022-09-20T02:35:05.881Z,26.03
2022-09-20T02:35:35.991Z,26.03
2022-09-20T02:36:06.097Z,26.02
2022-09-20T02:36:36.208Z,26.02
2022-09-20T02:37:06.320Z,26.02
2022-09-20T02:37:36.434Z,26.03
2022-09-20T02:38:06.541Z,26.02
2022-09-20T02:38:36.677Z,26.00
2022-09-20T02:39:06.768Z,26.02
2022-09-20T02:39:36.881Z,26.02
2022-09-20T02:40:06.933Z,26.00
2022-09-20T02:40:36.989Z,26.00
2022-09-20T02:41:06.947Z,26.02
2022-09-20T02:41:37.067Z,26.02
2022-09-20T02:42:07.176Z,26.02
2022-09-20T02:42:37.293Z,26.03
2022-09-20T02:43:07.405Z,26.02
2022-09-20T02:43:37.509Z,26.02
2022-09-20T02:44:07.541Z,26.03
2022-09-20T02:44:37.572Z,26.02
2022-09-20T02:45:07.600Z,26.02
2022-09-20T02:45:37.675Z,26.03
2022-09-20T02:46:07.780Z,26.02
2022-09-20T02:46:37.792Z,26.02
2022-09-20T02:47:07.815Z,26.03
2022-09-20T02:47:37.844Z,25.99
2022-09-20T02:48:07.871Z,26.00
2022-09-20T02:48:37.897Z,26.02
2022-09-20T02:49:07.920Z,26.02
2022-09-20T02:49:37.955Z,26.00
2022-09-20T02:50:07.981Z,26.03
2022-09-20T02:50:38.011Z,26.00
2022-09-20T02:51:08.036Z,26.02
2022-09-20T02:51:38.062Z,26.03
2022-09-20T02:52:08.080Z,26.00
2022-09-20T02:52:38.111Z,26.02
2022-09-20T02:53:08.126Z,26.00
2022-09-20T02:53:38.153Z,26.00
2022-09-20T02:54:08.207Z,26.00
2022-09-20T02:54:38.213Z,25.99
2022-09-20T02:55:08.233Z,26.00
2022-09-20T02:55:38.254Z,26.02
2022-09-20T02:56:08.278Z,25.99
2022-09-20T02:56:38.307Z,25.99
2022-09-20T02:57:08.324Z,25.99
2022-09-20T02:57:38.353Z,26.00
2022-09-20T02:58:08.382Z,26.02
2022-09-20T02:58:38.406Z,26.02
2022-09-20T02:59:08.498Z,26.00
2022-09-20T02:59:38.532Z,25.99
2022-09-20T03:00:08.558Z,26.00
2022-09-20T03:00:38.575Z,26.00
2022-09-20T03:01:08.687Z,26.00
2022-09-20T03:01:38.674Z,25.99
2022-09-20T03:02:08.804Z,25.99
2022-09-20T03:02:38.799Z,25.97
2022-09-20T03:03:08.843Z,26.02
2022-09-20T03:03:38.876Z,26.03
2022-09-20T03:04:08.889Z,25.99
2022-09-20T03:04:38.923Z,26.02
2022-09-20T03:05:08.952Z,25.97
2022-09-20T03:05:38.978Z,25.99
2022-09-20T03:06:09.008Z,26.00
2022-09-20T03:06:39.034Z,26.02
2022-09-20T03:07:09.064Z,26.00
2022-09-20T03:07:39.092Z,25.99
2022-09-20T03:08:09.112Z,25.99
2022-09-20T03:08:39.140Z,26.00
2022-09-20T03:09:09.166Z,26.00
2022-09-20T03:09:39.216Z,26.02
2022-09-20T03:10:09.211Z,26.00
2022-09-20T03:10:39.241Z,26.00
2022-09-20T03:11:09.266Z,26.00
2022-09-20T03:11:39.290Z,26.00
2022-09-20T03:12:09.312Z,26.00
2022-09-20T03:12:39.340Z,26.02
2022-09-20T03:13:09.359Z,26.00
2022-09-20T03:13:39.386Z,25.99
2022-09-20T03:14:09.412Z,26.00
2022-09-20T03:14:39.440Z,26.00
2022-09-20T03:15:09.474Z,26.00
2022-09-20T03:15:39.493Z,26.00
2022-09-20T03:16:09.633Z,25.99
2022-09-20T03:16:39.755Z,25.97
2022-09-20T03:17:09.701Z,25.99
2022-09-20T03:17:39.607Z,26.00
2022-09-20T03:18:09.629Z,25.99
2022-09-20T03:18:39.665Z,26.00
2022-09-20T03:19:09.689Z,26.00
2022-09-20T03:19:39.715Z,26.00
2022-09-20T03:20:09.742Z,25.99
2022-09-20T03:20:39.774Z,26.03
2022-09-20T03:21:09.799Z,25.97
2022-09-20T03:21:39.829Z,25.97
2022-09-20T03:22:09.856Z,26.00
2022-09-20T03:22:39.885Z,25.99
2022-09-20T03:23:09.904Z,26.00
2022-09-20T03:23:39.930Z,25.97
2022-09-20T03:24:09.950Z,26.00
2022-09-20T03:24:39.981Z,26.00
2022-09-20T03:25:10.031Z,25.99
2022-09-20T03:25:40.035Z,26.00
2022-09-20T03:26:10.061Z,26.00
2022-09-20T03:26:40.098Z,25.97
2022-09-20T03:27:10.127Z,26.02
2022-09-20T03:27:40.154Z,25.99
2022-09-20T03:28:10.180Z,25.99
2022-09-20T03:28:40.204Z,25.99
2022-09-20T03:29:10.224Z,25.97
2022-09-20T03:29:40.276Z,25.99
2022-09-20T03:30:10.301Z,25.97
2022-09-20T03:30:40.329Z,25.99
2022-09-20T03:31:10.357Z,26.00
2022-09-20T03:31:40.427Z,25.99
2022-09-20T03:32:10.552Z,25.99
2022-09-20T03:32:40.460Z,25.97
2022-09-20T03:33:10.485Z,25.99
2022-09-20T03:33:40.504Z,26.00
2022-09-20T03:34:10.613Z,25.97
2022-09-20T03:34:40.738Z,25.99
2022-09-20T03:35:10.729Z,25.99
2022-09-20T03:35:40.845Z,26.00
2022-09-20T03:36:10.839Z,25.97
2022-09-20T03:36:40.953Z,25.99
2022-09-20T03:37:11.068Z,25.99
2022-09-20T03:37:41.188Z,25.99
2022-09-20T03:38:11.300Z,25.99
2022-09-20T03:38:41.411Z,25.99
2022-09-20T03:39:11.526Z,25.99
2022-09-20T03:39:41.657Z,25.99
2022-09-20T03:40:11.695Z,25.99
2022-09-20T03:40:46.423Z,26.00
2022-09-20T03:41:11.699Z,25.97
2022-09-20T03:41:41.811Z,25.99
2022-09-20T03:42:11.922Z,26.02
2022-09-20T03:42:42.039Z,25.99
2022-09-20T03:43:12.157Z,25.99
2022-09-20T03:43:42.276Z,26.00
2022-09-20T03:44:12.312Z,26.00
2022-09-20T03:44:42.341Z,26.00
2022-09-20T03:45:12.382Z,25.97
2022-09-20T03:45:42.474Z,25.99
2022-09-20T03:46:12.588Z,25.97
2022-09-20T03:46:42.625Z,25.99
2022-09-20T03:47:12.648Z,25.97
2022-09-20T03:47:42.672Z,25.99
2022-09-20T03:48:12.698Z,25.96
2022-09-20T03:48:42.721Z,25.91
2022-09-20T03:49:12.746Z,25.93
2022-09-20T03:49:42.764Z,25.93
2022-09-20T03:50:12.796Z,25.95
2022-09-20T03:50:42.829Z,25.96
2022-09-20T03:51:12.873Z,25.96
2022-09-20T03:51:42.928Z,25.96
2022-09-20T03:52:12.956Z,25.97
2022-09-20T03:52:42.981Z,25.99
2022-09-20T03:53:13.052Z,25.99
2022-09-20T03:53:43.091Z,26.02
2022-09-20T03:54:13.113Z,26.00
2022-09-20T03:54:43.145Z,26.00
2022-09-20T03:55:13.170Z,26.02
2022-09-20T03:55:43.190Z,25.97
2022-09-20T03:56:13.237Z,25.96
2022-09-20T03:56:43.245Z,25.99
2022-09-20T03:57:13.280Z,26.00
2022-09-20T03:57:43.325Z,25.97
2022-09-20T03:58:13.354Z,26.02
2022-09-20T03:58:43.382Z,25.99
2022-09-20T03:59:13.403Z,26.02
2022-09-20T03:59:43.436Z,25.99
2022-09-20T04:00:13.470Z,26.00
2022-09-20T04:00:43.553Z,26.02
2022-09-20T04:01:13.625Z,26.02
2022-09-20T04:01:43.581Z,26.06
2022-09-20T04:02:13.665Z,26.07
2022-09-20T04:02:43.753Z,26.07
2022-09-20T04:03:13.771Z,26.10
2022-09-20T04:03:43.798Z,26.12
2022-09-20T04:04:13.817Z,26.10
2022-09-20T04:04:43.871Z,26.10
2022-09-20T04:05:13.905Z,26.13
2022-09-20T04:05:43.934Z,26.13
2022-09-20T04:06:13.954Z,26.15
2022-09-20T04:06:43.985Z,26.16
2022-09-20T04:07:13.999Z,26.15
2022-09-20T04:07:44.025Z,26.17
2022-09-20T04:08:14.046Z,26.17
2022-09-20T04:08:44.076Z,26.15
2022-09-20T04:09:14.130Z,26.19
2022-09-20T04:09:44.174Z,26.16
2022-09-20T04:10:14.196Z,26.17
2022-09-20T04:10:44.227Z,26.19
2022-09-20T04:11:14.247Z,26.17
2022-09-20T04:11:44.296Z,26.19
2022-09-20T04:12:14.296Z,26.16
2022-09-20T04:12:44.358Z,26.20
2022-09-20T04:13:14.376Z,26.20
2022-09-20T04:13:44.428Z,26.23
2022-09-20T04:14:14.752Z,26.19
2022-09-20T04:14:44.530Z,26.19
2022-09-20T04:15:14.558Z,26.20
2022-09-20T04:15:44.588Z,26.20
2022-09-20T04:16:14.633Z,26.19
2022-09-20T04:16:44.726Z,26.20
2022-09-20T04:17:14.747Z,26.22
2022-09-20T04:17:44.781Z,26.23
2022-09-20T04:18:14.799Z,26.22
2022-09-20T04:18:44.828Z,26.23
2022-09-20T04:19:14.850Z,26.23
2022-09-20T04:19:44.887Z,26.24
2022-09-20T04:20:14.915Z,26.23
2022-09-20T04:20:44.937Z,26.26
2022-09-20T04:21:14.968Z,26.27
2022-09-20T04:21:44.993Z,26.26
2022-09-20T04:22:15.032Z,26.27
2022-09-20T04:22:45.058Z,26.27
2022-09-20T04:23:15.086Z,26.26
2022-09-20T04:23:45.115Z,26.29
2022-09-20T04:24:15.135Z,26.32
2022-09-20T04:24:45.177Z,26.32
2022-09-20T04:25:15.209Z,26.30
2022-09-20T04:25:45.231Z,26.32
2022-09-20T04:26:15.268Z,26.32
2022-09-20T04:26:45.301Z,26.32
2022-09-20T04:27:15.342Z,26.32
2022-09-20T04:27:45.339Z,26.32
2022-09-20T04:28:15.368Z,26.30
2022-09-20T04:28:45.393Z,26.29
2022-09-20T04:29:15.417Z,26.30
2022-09-20T04:29:45.451Z,26.32
2022-09-20T04:30:15.473Z,26.30
2022-09-20T04:30:45.502Z,26.23
2022-09-20T04:31:15.588Z,26.22
2022-09-20T04:31:45.667Z,26.23
2022-09-20T04:32:15.805Z,26.20
2022-09-20T04:32:45.698Z,26.20
2022-09-20T04:33:15.719Z,26.19
2022-09-20T04:33:45.735Z,26.16
2022-09-20T04:34:15.848Z,26.12
2022-09-20T04:34:45.973Z,26.09
2022-09-20T04:35:15.964Z,26.07
2022-09-20T04:35:46.076Z,25.99
2022-09-20T04:36:16.190Z,25.85
2022-09-20T04:36:46.309Z,25.82
2022-09-20T04:37:16.416Z,25.74
2022-09-20T04:37:46.533Z,25.67
2022-09-20T04:38:16.647Z,25.60
2022-09-20T04:38:46.757Z,25.55
2022-09-20T04:39:16.876Z,25.51
2022-09-20T04:39:46.995Z,25.49
2022-09-20T04:40:17.059Z,25.44
2022-09-20T04:40:47.195Z,25.44
2022-09-20T04:41:17.151Z,25.41
2022-09-20T04:41:47.263Z,25.40
2022-09-20T04:42:17.382Z,25.38
2022-09-20T04:42:47.514Z,25.38
2022-09-20T04:43:17.605Z,25.36
2022-09-20T04:43:47.604Z,25.36
2022-09-20T04:44:17.633Z,25.36
2022-09-20T04:44:47.672Z,25.33
2022-09-20T04:45:17.701Z,25.28
2022-09-20T04:45:47.807Z,25.30
2022-09-20T04:46:17.913Z,25.27
2022-09-20T04:46:47.830Z,25.24
2022-09-20T04:47:17.856Z,25.14
2022-09-20T04:47:47.879Z,25.16
2022-09-20T04:48:17.903Z,25.17
2022-09-20T04:48:47.923Z,25.19
2022-09-20T04:49:17.952Z,25.14
2022-09-20T04:49:47.985Z,25.14
2022-09-20T04:50:18.005Z,25.16
2022-09-20T04:50:48.026Z,25.16
2022-09-20T04:51:18.063Z,25.20
2022-09-20T04:51:48.085Z,25.20
2022-09-20T04:52:18.126Z,25.23
2022-09-20T04:52:48.146Z,25.21
2022-09-20T04:53:18.173Z,25.24
2022-09-20T04:53:48.202Z,25.26
2022-09-20T04:54:18.218Z,25.27
2022-09-20T04:54:48.257Z,25.31
2022-09-20T04:55:18.286Z,25.34
2022-09-20T04:55:48.305Z,25.36
2022-09-20T04:56:18.333Z,25.38
2022-09-20T04:56:48.358Z,25.40
2022-09-20T04:57:18.386Z,25.42
2022-09-20T04:57:48.405Z,25.47
2022-09-20T04:58:18.461Z,25.49
2022-09-20T04:58:48.476Z,25.51
2022-09-20T04:59:18.491Z,25.55
2022-09-20T04:59:48.538Z,25.57
2022-09-20T05:00:18.566Z,25.58
2022-09-20T05:00:48.619Z,25.61
2022-09-20T05:01:18.686Z,25.65
2022-09-20T05:01:48.783Z,25.64
2022-09-20T05:02:18.840Z,25.68
2022-09-20T05:02:48.831Z,25.67
2022-09-20T05:03:18.865Z,25.68
2022-09-20T05:03:48.889Z,25.67
2022-09-20T05:04:18.914Z,25.68
2022-09-20T05:04:48.958Z,25.68
2022-09-20T05:05:18.984Z,25.67
2022-09-20T05:05:49.008Z,25.67
2022-09-20T05:06:19.038Z,25.68
2022-09-20T05:06:49.055Z,25.68
2022-09-20T05:07:19.088Z,25.69
2022-09-20T05:07:49.111Z,25.68
2022-09-20T05:08:19.137Z,25.68
2022-09-20T05:08:49.163Z,25.68
2022-09-20T05:09:19.189Z,25.68
2022-09-20T05:09:49.326Z,25.68
2022-09-20T05:10:19.219Z,25.67
2022-09-20T05:10:49.262Z,25.67
2022-09-20T05:11:19.277Z,25.67
2022-09-20T05:11:49.302Z,25.67
2022-09-20T05:12:19.333Z,25.62
2022-09-20T05:12:49.352Z,25.62
2022-09-20T05:13:19.387Z,25.60
2022-09-20T05:13:49.443Z,25.58
2022-09-20T05:14:19.472Z,25.58
2022-09-20T05:14:49.512Z,25.57
2022-09-20T05:15:19.547Z,25.49
2022-09-20T05:15:49.568Z,25.49
2022-09-20T05:16:19.623Z,25.45
2022-09-20T05:16:49.719Z,25.48
2022-09-20T05:17:19.757Z,25.45
2022-09-20T05:17:49.770Z,25.45
2022-09-20T05:18:19.799Z,25.41
2022-09-20T05:18:49.834Z,25.40
2022-09-20T05:19:19.857Z,25.40
2022-09-20T05:19:49.897Z,25.40
2022-09-20T05:20:19.922Z,25.36
2022-09-20T05:20:49.946Z,25.37
2022-09-20T05:21:19.980Z,25.33
2022-09-20T05:21:49.997Z,25.33
2022-09-20T05:22:20.029Z,25.27
2022-09-20T05:22:50.047Z,25.24
2022-09-20T05:23:20.073Z,25.26
2022-09-20T05:23:50.095Z,25.19
2022-09-20T05:24:20.134Z,25.20
2022-09-20T05:24:50.161Z,25.19
2022-09-20T05:25:20.183Z,25.17
2022-09-20T05:25:50.222Z,25.17
2022-09-20T05:26:20.240Z,25.14
2022-09-20T05:26:50.263Z,25.10
2022-09-20T05:27:20.288Z,25.10
2022-09-20T05:27:50.309Z,25.10
2022-09-20T05:28:20.328Z,25.06
2022-09-20T05:28:50.347Z,25.03
2022-09-20T05:29:20.394Z,25.03
2022-09-20T05:29:50.406Z,24.97
2022-09-20T05:30:20.421Z,24.99
2022-09-20T05:30:50.446Z,24.99
2022-09-20T05:31:20.601Z,25.02
2022-09-20T05:31:50.560Z,25.00
2022-09-20T05:32:20.589Z,25.05
2022-09-20T05:32:50.613Z,25.05
2022-09-20T05:33:20.638Z,25.05
2022-09-20T05:33:50.644Z,25.06
2022-09-20T05:34:20.749Z,25.09
2022-09-20T05:34:50.878Z,25.10
2022-09-20T05:35:20.872Z,25.11
2022-09-20T05:35:50.863Z,25.13
2022-09-20T05:36:20.975Z,25.13
2022-09-20T05:36:51.086Z,25.13
2022-09-20T05:37:21.194Z,25.11
2022-09-20T05:37:51.304Z,25.09
2022-09-20T05:38:21.472Z,25.07
2022-09-20T05:38:51.448Z,25.07
2022-09-20T05:39:21.556Z,25.05
2022-09-20T05:39:51.678Z,25.07
2022-09-20T05:40:21.692Z,25.09
2022-09-20T05:40:51.689Z,25.07
2022-09-20T05:41:21.801Z,25.05
2022-09-20T05:41:51.907Z,25.03
2022-09-20T05:42:22.046Z,25.02
2022-09-20T05:42:52.035Z,24.97
2022-09-20T05:43:22.141Z,24.93
2022-09-20T05:43:52.154Z,24.87
2022-09-20T05:44:22.199Z,24.86
2022-09-20T05:44:52.214Z,24.82
2022-09-20T05:45:22.239Z,24.82
2022-09-20T05:45:52.359Z,24.83
2022-09-20T05:46:22.288Z,24.83
2022-09-20T05:46:52.315Z,24.82
2022-09-20T05:47:22.355Z,24.83
2022-09-20T05:47:52.380Z,24.85
2022-09-20T05:48:22.410Z,24.87
2022-09-20T05:48:52.443Z,24.89
2022-09-20T05:49:22.470Z,24.91
2022-09-20T05:49:52.498Z,24.95
2022-09-20T05:50:22.523Z,24.96
2022-09-20T05:50:55.449Z,25.02
2022-09-20T05:51:22.576Z,25.00
2022-09-20T05:51:52.577Z,24.97
2022-09-20T05:52:22.605Z,25.00
2022-09-20T05:52:52.624Z,25.05
2022-09-20T05:53:22.648Z,25.05
2022-09-20T05:53:52.713Z,25.02
2022-09-20T05:54:22.745Z,24.95
2022-09-20T05:54:52.795Z,24.95
2022-09-20T05:55:22.904Z,24.91
2022-09-20T05:55:52.926Z,24.89
2022-09-20T05:56:22.946Z,24.87
2022-09-20T05:56:52.970Z,24.83
2022-09-20T05:57:22.989Z,24.82
2022-09-20T05:57:53.012Z,24.78
2022-09-20T05:58:23.053Z,24.75
2022-09-20T05:58:53.081Z,24.72
2022-09-20T05:59:23.109Z,24.59
2022-09-20T05:59:53.161Z,24.55
2022-09-20T06:00:23.159Z,24.59
2022-09-20T06:00:53.251Z,24.59
2022-09-20T06:01:23.291Z,24.68
2022-09-20T06:01:53.321Z,24.70
2022-09-20T06:02:23.433Z,24.75
2022-09-20T06:02:53.364Z,24.83
2022-09-20T06:03:23.396Z,24.87
2022-09-20T06:03:53.417Z,24.95
2022-09-20T06:04:23.452Z,24.99
2022-09-20T06:04:53.484Z,25.05
2022-09-20T06:05:23.511Z,25.11
2022-09-20T06:05:53.540Z,25.16
2022-09-20T06:06:23.559Z,25.24
2022-09-20T06:06:53.587Z,25.28
2022-09-20T06:07:23.633Z,25.34
2022-09-20T06:07:53.657Z,25.41
2022-09-20T06:08:23.689Z,25.45
2022-09-20T06:08:53.712Z,25.49
2022-09-20T06:09:23.748Z,25.57
2022-09-20T06:09:53.789Z,25.58
2022-09-20T06:10:23.821Z,25.65
2022-09-20T06:10:53.859Z,25.72
2022-09-20T06:11:23.883Z,25.76
2022-09-20T06:11:53.907Z,25.81
2022-09-20T06:12:23.928Z,25.85
2022-09-20T06:12:53.949Z,25.92
2022-09-20T06:13:23.974Z,25.97
2022-09-20T06:13:54.000Z,26.02
2022-09-20T06:14:24.028Z,26.02
2022-09-20T06:14:54.050Z,26.09
2022-09-20T06:15:24.098Z,26.15
2022-09-20T06:15:54.101Z,26.15
2022-09-20T06:16:24.152Z,26.19
2022-09-20T06:16:54.188Z,26.16
2022-09-20T06:17:24.225Z,26.17
2022-09-20T06:17:54.250Z,26.23
2022-09-20T06:18:24.283Z,26.29
2022-09-20T06:18:54.305Z,26.29
2022-09-20T06:19:24.333Z,26.34
2022-09-20T06:19:54.364Z,26.36
2022-09-20T06:20:24.390Z,26.40
2022-09-20T06:20:54.410Z,26.43
2022-09-20T06:21:24.432Z,26.43
2022-09-20T06:21:54.461Z,26.48
2022-09-20T06:22:24.480Z,26.50
2022-09-20T06:22:54.507Z,26.54
2022-09-20T06:23:24.532Z,26.55
2022-09-20T06:23:54.573Z,26.60
2022-09-20T06:24:24.590Z,26.63
2022-09-20T06:24:54.620Z,26.64
2022-09-20T06:25:24.657Z,26.67
2022-09-20T06:25:54.677Z,26.63
2022-09-20T06:26:24.708Z,26.68
2022-09-20T06:26:54.732Z,26.73